sensor_id;sensor_type;location;lat;lon;timestamp;temperature;humidity
21559;DHT22;10940;48.890;8.240;2023-03-01T00:01:24;-0.70;99.90
21559;DHT22;10940;48.890;8.240;2023-03-01T00:03:51;-0.70;99.90
21559;DHT22;10940;48.890;8.240;2023-03-01T00:06:17;-0.70;99.90
21559;DHT22;10940;48.890;8.240;2023-03-01T00:08:42;-0.60;99.90
21559;DHT22;10940;48.890;8.240;2023-03-01T00:11:17;-0.60;99.90
21559;DHT22;10940;48.890;8.240;2023-03-01T00:13:43;-0.60;99.90
21559;DHT22;10940;48.890;8.240;2023-03-01T00:16:13;-0.60;99.90
21559;DHT22;10940;48.890;8.240;2023-03-01T00:18:39;-0.60;99.90
21559;DHT22;10940;48.890;8.240;2023-03-01T00:21:05;-0.60;99.90
21559;DHT22;10940;48.890;8.240;2023-03-01T00:23:31;-0.60;99.90
21559;DHT22;10940;48.890;8.240;2023-03-01T00:25:56;-0.60;99.90
21559;DHT22;10940;48.890;8.240;2023-03-01T00:28:22;-0.60;99.90
21559;DHT22;10940;48.890;8.240;2023-03-01T00:30:48;-0.60;99.90
21559;DHT22;10940;48.890;8.240;2023-03-01T00:33:13;-0.60;99.90
21559;DHT22;10940;48.890;8.240;2023-03-01T00:35:39;-0.60;99.90
21559;DHT22;10940;48.890;8.240;2023-03-01T00:38:05;-0.70;99.90
21559;DHT22;10940;48.890;8.240;2023-03-01T00:40:33;-0.80;99.90
21559;DHT22;10940;48.890;8.240;2023-03-01T00:42:59;-0.80;99.90
21559;DHT22;10940;48.890;8.240;2023-03-01T00:45:25;-0.90;99.90
21559;DHT22;10940;48.890;8.240;2023-03-01T00:47:52;-0.90;99.90
21559;DHT22;10940;48.890;8.240;2023-03-01T00:50:19;-0.90;99.90
21559;DHT22;10940;48.890;8.240;2023-03-01T00:52:44;-0.90;99.90
21559;DHT22;10940;48.890;8.240;2023-03-01T00:55:10;-0.90;99.90
21559;DHT22;10940;48.890;8.240;2023-03-01T00:57:36;-0.90;99.90
21559;DHT22;10940;48.890;8.240;2023-03-01T01:00:04;-0.90;99.90
21559;DHT22;10940;48.890;8.240;2023-03-01T01:02:32;-0.90;99.90
21559;DHT22;10940;48.890;8.240;2023-03-01T01:04:58;-0.90;99.90
21559;DHT22;10940;48.890;8.240;2023-03-01T01:07:23;-0.90;99.90
21559;DHT22;10940;48.890;8.240;2023-03-01T01:09:49;-0.90;99.90
21559;DHT22;10940;48.890;8.240;2023-03-01T01:12:14;-0.90;99.90
21559;DHT22;10940;48.890;8.240;2023-03-01T01:14:40;-0.90;99.90
21559;DHT22;10940;48.890;8.240;2023-03-01T01:17:05;-0.90;99.90
21559;DHT22;10940;48.890;8.240;2023-03-01T01:19:31;-0.90;99.90
21559;DHT22;10940;48.890;8.240;2023-03-01T01:21:57;-0.90;99.90
21559;DHT22;10940;48.890;8.240;2023-03-01T01:24:22;-1.00;99.90
21559;DHT22;10940;48.890;8.240;2023-03-01T01:26:48;-1.00;99.90
21559;DHT22;10940;48.890;8.240;2023-03-01T01:29:13;-1.00;99.90
21559;DHT22;10940;48.890;8.240;2023-03-01T01:31:41;-1.00;99.90
21559;DHT22;10940;48.890;8.240;2023-03-01T01:34:13;-1.00;99.90
21559;DHT22;10940;48.890;8.240;2023-03-01T01:36:39;-1.00;99.90
21559;DHT22;10940;48.890;8.240;2023-03-01T01:39:05;-1.00;99.90
21559;DHT22;10940;48.890;8.240;2023-03-01T01:41:31;-1.00;99.90
21559;DHT22;10940;48.890;8.240;2023-03-01T01:46:58;-1.00;99.90
21559;DHT22;10940;48.890;8.240;2023-03-01T01:49:31;-1.00;99.90
21559;DHT22;10940;48.890;8.240;2023-03-01T01:52:25;-1.00;99.90
21559;DHT22;10940;48.890;8.240;2023-03-01T01:55:04;-1.00;99.90
21559;DHT22;10940;48.890;8.240;2023-03-01T01:57:43;-1.00;99.90
21559;DHT22;10940;48.890;8.240;2023-03-01T02:00:14;-1.00;99.90
21559;DHT22;10940;48.890;8.240;2023-03-01T02:02:41;-1.10;99.90
21559;DHT22;10940;48.890;8.240;2023-03-01T02:07:53;-1.10;99.90
21559;DHT22;10940;48.890;8.240;2023-03-01T02:10:20;-1.10;99.90
21559;DHT22;10940;48.890;8.240;2023-03-01T02:12:46;-1.10;99.90
21559;DHT22;10940;48.890;8.240;2023-03-01T02:15:12;-1.20;99.90
21559;DHT22;10940;48.890;8.240;2023-03-01T02:17:38;-1.20;99.90
21559;DHT22;10940;48.890;8.240;2023-03-01T02:20:21;-1.20;99.90
21559;DHT22;10940;48.890;8.240;2023-03-01T02:22:48;-1.20;99.90
21559;DHT22;10940;48.890;8.240;2023-03-01T02:30:33;-1.30;99.90
21559;DHT22;10940;48.890;8.240;2023-03-01T02:33:00;-1.30;99.90
21559;DHT22;10940;48.890;8.240;2023-03-01T02:35:35;-1.30;99.90
21559;DHT22;10940;48.890;8.240;2023-03-01T02:38:03;-1.30;99.90
21559;DHT22;10940;48.890;8.240;2023-03-01T02:40:33;-1.40;99.90
21559;DHT22;10940;48.890;8.240;2023-03-01T02:43:00;-1.40;99.90
21559;DHT22;10940;48.890;8.240;2023-03-01T02:45:27;-1.40;99.90
21559;DHT22;10940;48.890;8.240;2023-03-01T02:47:56;-1.40;99.90
21559;DHT22;10940;48.890;8.240;2023-03-01T02:53:27;-1.40;99.90
21559;DHT22;10940;48.890;8.240;2023-03-01T02:55:58;-1.50;99.90
21559;DHT22;10940;48.890;8.240;2023-03-01T02:58:24;-1.40;99.90
21559;DHT22;10940;48.890;8.240;2023-03-01T03:00:50;-1.50;99.90
21559;DHT22;10940;48.890;8.240;2023-03-01T03:03:21;-1.40;99.90
21559;DHT22;10940;48.890;8.240;2023-03-01T03:05:47;-1.40;99.90
21559;DHT22;10940;48.890;8.240;2023-03-01T03:08:14;-1.30;99.90
21559;DHT22;10940;48.890;8.240;2023-03-01T03:10:49;-1.30;99.90
21559;DHT22;10940;48.890;8.240;2023-03-01T03:13:15;-1.30;99.90
21559;DHT22;10940;48.890;8.240;2023-03-01T03:15:42;-1.30;99.90
21559;DHT22;10940;48.890;8.240;2023-03-01T03:18:11;-1.30;99.90
21559;DHT22;10940;48.890;8.240;2023-03-01T03:20:37;-1.30;99.90
21559;DHT22;10940;48.890;8.240;2023-03-01T03:23:03;-1.30;99.90
21559;DHT22;10940;48.890;8.240;2023-03-01T03:25:29;-1.30;99.90
21559;DHT22;10940;48.890;8.240;2023-03-01T03:27:56;-1.30;99.90
21559;DHT22;10940;48.890;8.240;2023-03-01T03:30:24;-1.40;99.90
21559;DHT22;10940;48.890;8.240;2023-03-01T03:32:50;-1.30;99.90
21559;DHT22;10940;48.890;8.240;2023-03-01T03:35:31;-1.40;99.90
21559;DHT22;10940;48.890;8.240;2023-03-01T03:37:58;-1.40;99.90
21559;DHT22;10940;48.890;8.240;2023-03-01T03:42:54;-1.40;99.90
21559;DHT22;10940;48.890;8.240;2023-03-01T03:45:20;-1.50;99.90
21559;DHT22;10940;48.890;8.240;2023-03-01T03:47:46;-1.50;99.90
21559;DHT22;10940;48.890;8.240;2023-03-01T03:50:13;-1.50;99.90
21559;DHT22;10940;48.890;8.240;2023-03-01T03:52:39;-1.50;99.90
21559;DHT22;10940;48.890;8.240;2023-03-01T03:55:06;-1.50;99.90
21559;DHT22;10940;48.890;8.240;2023-03-01T03:57:42;-1.40;99.90
21559;DHT22;10940;48.890;8.240;2023-03-01T04:00:10;-1.40;99.90
21559;DHT22;10940;48.890;8.240;2023-03-01T04:02:40;-1.40;99.90
21559;DHT22;10940;48.890;8.240;2023-03-01T04:05:07;-1.50;99.90
21559;DHT22;10940;48.890;8.240;2023-03-01T04:07:34;-1.50;99.90
21559;DHT22;10940;48.890;8.240;2023-03-01T04:10:00;-1.50;99.90
21559;DHT22;10940;48.890;8.240;2023-03-01T04:12:26;-1.40;99.90
21559;DHT22;10940;48.890;8.240;2023-03-01T04:14:52;-1.50;99.90
21559;DHT22;10940;48.890;8.240;2023-03-01T04:17:17;-1.50;99.90
21559;DHT22;10940;48.890;8.240;2023-03-01T04:19:44;-1.60;99.90
21559;DHT22;10940;48.890;8.240;2023-03-01T04:22:14;-1.60;99.90
21559;DHT22;10940;48.890;8.240;2023-03-01T04:24:44;-1.60;99.90
21559;DHT22;10940;48.890;8.240;2023-03-01T04:27:10;-1.60;99.90
21559;DHT22;10940;48.890;8.240;2023-03-01T04:29:36;-1.60;99.90
21559;DHT22;10940;48.890;8.240;2023-03-01T04:32:01;-1.50;99.90
21559;DHT22;10940;48.890;8.240;2023-03-01T04:34:28;-1.50;99.90
21559;DHT22;10940;48.890;8.240;2023-03-01T04:36:54;-1.60;99.90
21559;DHT22;10940;48.890;8.240;2023-03-01T04:39:20;-1.60;99.90
21559;DHT22;10940;48.890;8.240;2023-03-01T04:41:46;-1.60;99.90
21559;DHT22;10940;48.890;8.240;2023-03-01T04:44:12;-1.60;99.90
21559;DHT22;10940;48.890;8.240;2023-03-01T04:46:38;-1.60;99.90
21559;DHT22;10940;48.890;8.240;2023-03-01T04:49:03;-1.60;99.90
21559;DHT22;10940;48.890;8.240;2023-03-01T04:51:30;-1.60;99.90
21559;DHT22;10940;48.890;8.240;2023-03-01T04:53:57;-1.60;99.90
21559;DHT22;10940;48.890;8.240;2023-03-01T04:56:22;-1.60;99.90
21559;DHT22;10940;48.890;8.240;2023-03-01T04:58:48;-1.60;99.90
21559;DHT22;10940;48.890;8.240;2023-03-01T05:01:19;-1.50;99.90
21559;DHT22;10940;48.890;8.240;2023-03-01T05:03:50;-1.50;99.90
21559;DHT22;10940;48.890;8.240;2023-03-01T05:06:16;-1.60;99.90
21559;DHT22;10940;48.890;8.240;2023-03-01T05:08:43;-1.50;99.90
21559;DHT22;10940;48.890;8.240;2023-03-01T05:11:09;-1.60;99.90
21559;DHT22;10940;48.890;8.240;2023-03-01T05:13:36;-1.50;99.90
21559;DHT22;10940;48.890;8.240;2023-03-01T05:16:03;-1.50;99.90
21559;DHT22;10940;48.890;8.240;2023-03-01T05:18:31;-1.40;99.90
21559;DHT22;10940;48.890;8.240;2023-03-01T05:21:08;-1.50;99.90
21559;DHT22;10940;48.890;8.240;2023-03-01T05:23:35;-1.40;99.90
21559;DHT22;10940;48.890;8.240;2023-03-01T05:26:02;-1.40;99.90
21559;DHT22;10940;48.890;8.240;2023-03-01T05:28:29;-1.40;99.90
21559;DHT22;10940;48.890;8.240;2023-03-01T05:30:55;-1.50;99.90
21559;DHT22;10940;48.890;8.240;2023-03-01T05:33:21;-1.50;99.90
21559;DHT22;10940;48.890;8.240;2023-03-01T05:35:48;-1.60;99.90
21559;DHT22;10940;48.890;8.240;2023-03-01T05:38:14;-1.60;99.90
21559;DHT22;10940;48.890;8.240;2023-03-01T05:40:41;-1.60;99.90
21559;DHT22;10940;48.890;8.240;2023-03-01T05:43:07;-1.60;99.90
21559;DHT22;10940;48.890;8.240;2023-03-01T05:45:36;-1.70;99.90
21559;DHT22;10940;48.890;8.240;2023-03-01T05:48:02;-1.70;99.90
21559;DHT22;10940;48.890;8.240;2023-03-01T05:50:29;-1.70;99.90
21559;DHT22;10940;48.890;8.240;2023-03-01T05:52:59;-1.70;99.90
21559;DHT22;10940;48.890;8.240;2023-03-01T05:55:25;-1.70;99.90
21559;DHT22;10940;48.890;8.240;2023-03-01T05:57:51;-1.70;99.90
21559;DHT22;10940;48.890;8.240;2023-03-01T06:00:19;-1.70;99.90
21559;DHT22;10940;48.890;8.240;2023-03-01T06:02:45;-1.70;99.90
21559;DHT22;10940;48.890;8.240;2023-03-01T06:05:12;-1.70;99.90
21559;DHT22;10940;48.890;8.240;2023-03-01T06:07:38;-1.70;99.90
21559;DHT22;10940;48.890;8.240;2023-03-01T06:10:05;-1.70;99.90
21559;DHT22;10940;48.890;8.240;2023-03-01T06:12:32;-1.70;99.90
21559;DHT22;10940;48.890;8.240;2023-03-01T06:14:58;-1.70;99.90
21559;DHT22;10940;48.890;8.240;2023-03-01T06:17:24;-1.70;99.90
21559;DHT22;10940;48.890;8.240;2023-03-01T06:19:50;-1.70;99.90
21559;DHT22;10940;48.890;8.240;2023-03-01T06:22:15;-1.70;99.90
21559;DHT22;10940;48.890;8.240;2023-03-01T06:24:41;-1.60;99.90
21559;DHT22;10940;48.890;8.240;2023-03-01T06:27:06;-1.70;99.90
21559;DHT22;10940;48.890;8.240;2023-03-01T06:29:32;-1.70;99.90
21559;DHT22;10940;48.890;8.240;2023-03-01T06:31:58;-1.60;99.90
21559;DHT22;10940;48.890;8.240;2023-03-01T06:34:23;-1.60;99.90
21559;DHT22;10940;48.890;8.240;2023-03-01T06:36:49;-1.50;99.90
21559;DHT22;10940;48.890;8.240;2023-03-01T06:39:14;-1.50;99.90
21559;DHT22;10940;48.890;8.240;2023-03-01T06:41:40;-1.50;99.90
21559;DHT22;10940;48.890;8.240;2023-03-01T06:44:06;-1.50;99.90
21559;DHT22;10940;48.890;8.240;2023-03-01T06:46:31;-1.40;99.90
21559;DHT22;10940;48.890;8.240;2023-03-01T06:48:57;-1.40;99.90
21559;DHT22;10940;48.890;8.240;2023-03-01T06:51:22;-1.40;99.90
21559;DHT22;10940;48.890;8.240;2023-03-01T06:53:48;-1.30;99.90
21559;DHT22;10940;48.890;8.240;2023-03-01T06:56:14;-1.30;99.90
21559;DHT22;10940;48.890;8.240;2023-03-01T06:58:39;-1.20;99.90
21559;DHT22;10940;48.890;8.240;2023-03-01T07:01:06;-1.20;99.90
21559;DHT22;10940;48.890;8.240;2023-03-01T07:03:32;-1.20;99.90
21559;DHT22;10940;48.890;8.240;2023-03-01T07:05:57;-1.10;99.90
21559;DHT22;10940;48.890;8.240;2023-03-01T07:08:23;-1.00;99.90
21559;DHT22;10940;48.890;8.240;2023-03-01T07:10:57;-1.00;99.90
21559;DHT22;10940;48.890;8.240;2023-03-01T07:13:23;-0.90;99.90
21559;DHT22;10940;48.890;8.240;2023-03-01T07:15:49;-0.90;99.90
21559;DHT22;10940;48.890;8.240;2023-03-01T07:18:14;-0.80;99.90
21559;DHT22;10940;48.890;8.240;2023-03-01T07:20:40;-0.80;99.90
21559;DHT22;10940;48.890;8.240;2023-03-01T07:23:06;-0.70;99.90
21559;DHT22;10940;48.890;8.240;2023-03-01T07:25:32;-0.70;99.90
21559;DHT22;10940;48.890;8.240;2023-03-01T07:27:58;-0.60;99.90
21559;DHT22;10940;48.890;8.240;2023-03-01T07:30:23;-0.50;99.90
21559;DHT22;10940;48.890;8.240;2023-03-01T07:32:51;-0.50;99.90
21559;DHT22;10940;48.890;8.240;2023-03-01T07:35:17;-0.40;99.90
21559;DHT22;10940;48.890;8.240;2023-03-01T07:37:43;-0.30;99.90
21559;DHT22;10940;48.890;8.240;2023-03-01T07:40:10;-0.10;99.90
21559;DHT22;10940;48.890;8.240;2023-03-01T07:42:36;-0.10;99.90
21559;DHT22;10940;48.890;8.240;2023-03-01T07:45:02;-0.10;99.90
21559;DHT22;10940;48.890;8.240;2023-03-01T07:47:27;-0.10;99.90
21559;DHT22;10940;48.890;8.240;2023-03-01T07:49:53;-0.10;99.90
21559;DHT22;10940;48.890;8.240;2023-03-01T07:52:18;0.00;99.90
21559;DHT22;10940;48.890;8.240;2023-03-01T07:54:44;0.00;99.90
21559;DHT22;10940;48.890;8.240;2023-03-01T07:57:10;0.10;99.90
21559;DHT22;10940;48.890;8.240;2023-03-01T07:59:36;0.20;99.90
21559;DHT22;10940;48.890;8.240;2023-03-01T08:02:01;0.40;99.90
21559;DHT22;10940;48.890;8.240;2023-03-01T08:04:27;0.50;99.90
21559;DHT22;10940;48.890;8.240;2023-03-01T08:06:56;0.60;99.90
21559;DHT22;10940;48.890;8.240;2023-03-01T08:09:22;0.70;99.90
21559;DHT22;10940;48.890;8.240;2023-03-01T08:11:47;0.80;99.90
21559;DHT22;10940;48.890;8.240;2023-03-01T08:14:13;0.80;99.90
21559;DHT22;10940;48.890;8.240;2023-03-01T08:16:39;0.90;99.90
21559;DHT22;10940;48.890;8.240;2023-03-01T08:19:09;1.00;99.90
21559;DHT22;10940;48.890;8.240;2023-03-01T08:21:36;1.00;99.90
21559;DHT22;10940;48.890;8.240;2023-03-01T08:24:04;1.10;99.90
21559;DHT22;10940;48.890;8.240;2023-03-01T08:26:30;1.20;99.90
21559;DHT22;10940;48.890;8.240;2023-03-01T08:28:55;1.40;99.90
21559;DHT22;10940;48.890;8.240;2023-03-01T08:31:28;1.40;99.90
21559;DHT22;10940;48.890;8.240;2023-03-01T08:33:56;1.50;99.90
21559;DHT22;10940;48.890;8.240;2023-03-01T08:36:28;1.60;99.90
21559;DHT22;10940;48.890;8.240;2023-03-01T08:38:54;1.70;99.90
21559;DHT22;10940;48.890;8.240;2023-03-01T08:41:20;1.80;99.90
21559;DHT22;10940;48.890;8.240;2023-03-01T08:43:46;1.90;99.90
21559;DHT22;10940;48.890;8.240;2023-03-01T08:46:12;1.90;99.90
21559;DHT22;10940;48.890;8.240;2023-03-01T08:48:38;2.00;99.90
21559;DHT22;10940;48.890;8.240;2023-03-01T08:51:09;2.00;99.90
21559;DHT22;10940;48.890;8.240;2023-03-01T08:53:34;2.10;99.90
21559;DHT22;10940;48.890;8.240;2023-03-01T08:56:00;2.10;99.90
21559;DHT22;10940;48.890;8.240;2023-03-01T08:58:28;2.20;99.90
21559;DHT22;10940;48.890;8.240;2023-03-01T09:00:53;2.30;99.90
21559;DHT22;10940;48.890;8.240;2023-03-01T09:03:19;2.40;99.90
21559;DHT22;10940;48.890;8.240;2023-03-01T09:05:44;2.50;99.90
21559;DHT22;10940;48.890;8.240;2023-03-01T09:08:11;2.60;99.90
21559;DHT22;10940;48.890;8.240;2023-03-01T09:10:38;2.70;99.90
21559;DHT22;10940;48.890;8.240;2023-03-01T09:13:04;2.80;99.90
21559;DHT22;10940;48.890;8.240;2023-03-01T09:15:30;2.90;99.90
21559;DHT22;10940;48.890;8.240;2023-03-01T09:17:55;3.00;99.90
21559;DHT22;10940;48.890;8.240;2023-03-01T09:20:21;3.00;99.90
21559;DHT22;10940;48.890;8.240;2023-03-01T09:22:47;3.10;99.90
21559;DHT22;10940;48.890;8.240;2023-03-01T09:25:12;3.20;99.90
21559;DHT22;10940;48.890;8.240;2023-03-01T09:27:38;3.20;99.90
21559;DHT22;10940;48.890;8.240;2023-03-01T09:30:04;3.30;99.90
21559;DHT22;10940;48.890;8.240;2023-03-01T09:32:30;3.40;99.90
21559;DHT22;10940;48.890;8.240;2023-03-01T09:34:56;3.50;99.90
21559;DHT22;10940;48.890;8.240;2023-03-01T09:37:35;3.60;99.90
21559;DHT22;10940;48.890;8.240;2023-03-01T09:40:02;3.70;99.90
21559;DHT22;10940;48.890;8.240;2023-03-01T09:42:29;3.80;99.90
21559;DHT22;10940;48.890;8.240;2023-03-01T09:45:13;3.90;99.90
21559;DHT22;10940;48.890;8.240;2023-03-01T09:47:41;3.90;99.90
21559;DHT22;10940;48.890;8.240;2023-03-01T09:50:15;4.00;99.90
21559;DHT22;10940;48.890;8.240;2023-03-01T09:55:34;4.20;99.90
21559;DHT22;10940;48.890;8.240;2023-03-01T10:03:49;4.30;99.90
21559;DHT22;10940;48.890;8.240;2023-03-01T10:06:23;4.40;99.90
21559;DHT22;10940;48.890;8.240;2023-03-01T10:09:19;4.40;99.90
21559;DHT22;10940;48.890;8.240;2023-03-01T10:11:51;4.50;99.90
21559;DHT22;10940;48.890;8.240;2023-03-01T10:19:51;4.70;99.90
21559;DHT22;10940;48.890;8.240;2023-03-01T10:22:29;4.80;99.90
21559;DHT22;10940;48.890;8.240;2023-03-01T10:24:58;4.90;99.90
21559;DHT22;10940;48.890;8.240;2023-03-01T10:27:29;5.00;99.90
21559;DHT22;10940;48.890;8.240;2023-03-01T10:30:09;5.00;99.90
21559;DHT22;10940;48.890;8.240;2023-03-01T10:32:38;5.10;99.90
21559;DHT22;10940;48.890;8.240;2023-03-01T10:35:21;5.20;99.90
21559;DHT22;10940;48.890;8.240;2023-03-01T10:40:34;5.20;99.90
21559;DHT22;10940;48.890;8.240;2023-03-01T10:43:02;5.20;99.90
21559;DHT22;10940;48.890;8.240;2023-03-01T10:48:21;5.40;99.90
21559;DHT22;10940;48.890;8.240;2023-03-01T10:53:25;5.50;99.90
21559;DHT22;10940;48.890;8.240;2023-03-01T10:56:03;5.60;99.90
21559;DHT22;10940;48.890;8.240;2023-03-01T10:58:30;5.60;99.90
21559;DHT22;10940;48.890;8.240;2023-03-01T11:01:02;5.50;99.90
21559;DHT22;10940;48.890;8.240;2023-03-01T11:06:02;5.80;99.90
21559;DHT22;10940;48.890;8.240;2023-03-01T11:08:40;5.80;99.90
21559;DHT22;10940;48.890;8.240;2023-03-01T11:11:30;5.80;99.90
21559;DHT22;10940;48.890;8.240;2023-03-01T11:16:48;6.00;99.90
21559;DHT22;10940;48.890;8.240;2023-03-01T11:19:18;6.10;99.90
21559;DHT22;10940;48.890;8.240;2023-03-01T11:22:03;6.10;99.90
21559;DHT22;10940;48.890;8.240;2023-03-01T11:24:48;6.10;99.90
21559;DHT22;10940;48.890;8.240;2023-03-01T11:27:24;6.20;99.90
21559;DHT22;10940;48.890;8.240;2023-03-01T11:36:00;6.30;99.90
21559;DHT22;10940;48.890;8.240;2023-03-01T11:38:28;6.50;99.90
21559;DHT22;10940;48.890;8.240;2023-03-01T12:00:36;7.00;99.90
21559;DHT22;10940;48.890;8.240;2023-03-01T12:06:12;6.90;99.90
21559;DHT22;10940;48.890;8.240;2023-03-01T12:19:54;7.20;99.90
21559;DHT22;10940;48.890;8.240;2023-03-01T12:22:44;7.20;99.90
21559;DHT22;10940;48.890;8.240;2023-03-01T12:39:03;7.60;99.90
21559;DHT22;10940;48.890;8.240;2023-03-01T12:41:55;7.80;99.90
21559;DHT22;10940;48.890;8.240;2023-03-01T12:47:06;8.40;99.90
21559;DHT22;10940;48.890;8.240;2023-03-01T12:49:48;8.80;99.90
21559;DHT22;10940;48.890;8.240;2023-03-01T12:52:22;9.20;99.90
21559;DHT22;10940;48.890;8.240;2023-03-01T12:54:51;9.40;99.90
21559;DHT22;10940;48.890;8.240;2023-03-01T12:57:37;9.40;99.90
21559;DHT22;10940;48.890;8.240;2023-03-01T13:02:50;9.50;99.90
21559;DHT22;10940;48.890;8.240;2023-03-01T13:10:50;9.40;99.90
21559;DHT22;10940;48.890;8.240;2023-03-01T13:13:26;9.50;99.90
21559;DHT22;10940;48.890;8.240;2023-03-01T13:15:53;9.70;99.90
21559;DHT22;10940;48.890;8.240;2023-03-01T13:20:49;9.70;99.90
21559;DHT22;10940;48.890;8.240;2023-03-01T13:28:57;9.60;99.90
21559;DHT22;10940;48.890;8.240;2023-03-01T13:33:54;9.20;99.90
21559;DHT22;10940;48.890;8.240;2023-03-01T13:39:03;8.90;99.90
21559;DHT22;10940;48.890;8.240;2023-03-01T13:46:58;8.60;99.90
21559;DHT22;10940;48.890;8.240;2023-03-01T13:49:31;8.60;99.90
21559;DHT22;10940;48.890;8.240;2023-03-01T13:51:58;8.80;99.90
21559;DHT22;10940;48.890;8.240;2023-03-01T13:54:33;9.00;99.90
21559;DHT22;10940;48.890;8.240;2023-03-01T13:57:01;9.20;99.90
21559;DHT22;10940;48.890;8.240;2023-03-01T13:59:27;9.20;99.90
21559;DHT22;10940;48.890;8.240;2023-03-01T14:02:00;9.10;99.90
21559;DHT22;10940;48.890;8.240;2023-03-01T14:04:31;9.10;99.90
21559;DHT22;10940;48.890;8.240;2023-03-01T14:07:21;9.20;99.90
21559;DHT22;10940;48.890;8.240;2023-03-01T14:09:53;9.10;99.90
21559;DHT22;10940;48.890;8.240;2023-03-01T14:15:06;9.10;99.90
21559;DHT22;10940;48.890;8.240;2023-03-01T14:21:01;9.00;99.90
21559;DHT22;10940;48.890;8.240;2023-03-01T14:23:32;8.90;99.90
21559;DHT22;10940;48.890;8.240;2023-03-01T14:26:00;8.80;99.90
21559;DHT22;10940;48.890;8.240;2023-03-01T14:28:28;8.80;99.90
21559;DHT22;10940;48.890;8.240;2023-03-01T14:30:57;8.70;99.90
21559;DHT22;10940;48.890;8.240;2023-03-01T14:33:28;8.80;99.90
21559;DHT22;10940;48.890;8.240;2023-03-01T14:36:12;8.90;99.90
21559;DHT22;10940;48.890;8.240;2023-03-01T14:38:40;8.80;99.90
21559;DHT22;10940;48.890;8.240;2023-03-01T14:41:15;8.60;99.90
21559;DHT22;10940;48.890;8.240;2023-03-01T14:43:55;8.60;99.90
21559;DHT22;10940;48.890;8.240;2023-03-01T14:46:35;8.70;99.90
21559;DHT22;10940;48.890;8.240;2023-03-01T14:49:13;8.80;99.90
21559;DHT22;10940;48.890;8.240;2023-03-01T14:51:42;8.80;99.90
21559;DHT22;10940;48.890;8.240;2023-03-01T14:57:01;8.60;99.90
21559;DHT22;10940;48.890;8.240;2023-03-01T14:59:27;8.50;99.90
21559;DHT22;10940;48.890;8.240;2023-03-01T15:01:55;8.50;99.90
21559;DHT22;10940;48.890;8.240;2023-03-01T15:04:22;8.40;99.90
21559;DHT22;10940;48.890;8.240;2023-03-01T15:06:51;8.40;99.90
21559;DHT22;10940;48.890;8.240;2023-03-01T15:09:18;8.40;99.90
21559;DHT22;10940;48.890;8.240;2023-03-01T15:11:44;8.30;99.90
21559;DHT22;10940;48.890;8.240;2023-03-01T15:14:38;8.30;99.90
21559;DHT22;10940;48.890;8.240;2023-03-01T15:17:20;8.20;99.90
21559;DHT22;10940;48.890;8.240;2023-03-01T15:19:46;8.20;99.90
21559;DHT22;10940;48.890;8.240;2023-03-01T15:22:15;8.10;99.90
21559;DHT22;10940;48.890;8.240;2023-03-01T15:24:41;8.00;99.90
21559;DHT22;10940;48.890;8.240;2023-03-01T15:27:18;8.00;99.90
21559;DHT22;10940;48.890;8.240;2023-03-01T15:29:50;8.00;99.90
21559;DHT22;10940;48.890;8.240;2023-03-01T15:34:56;8.00;99.90
21559;DHT22;10940;48.890;8.240;2023-03-01T15:40:25;7.90;99.90
21559;DHT22;10940;48.890;8.240;2023-03-01T15:42:57;7.90;99.90
21559;DHT22;10940;48.890;8.240;2023-03-01T15:45:25;7.90;99.90
21559;DHT22;10940;48.890;8.240;2023-03-01T15:47:57;7.90;99.90
21559;DHT22;10940;48.890;8.240;2023-03-01T15:50:30;7.90;99.90
21559;DHT22;10940;48.890;8.240;2023-03-01T15:52:59;7.90;99.90
21559;DHT22;10940;48.890;8.240;2023-03-01T15:55:28;7.90;99.90
21559;DHT22;10940;48.890;8.240;2023-03-01T16:00:30;7.70;99.90
21559;DHT22;10940;48.890;8.240;2023-03-01T16:02:56;7.70;99.90
21559;DHT22;10940;48.890;8.240;2023-03-01T16:07:49;7.60;99.90
21559;DHT22;10940;48.890;8.240;2023-03-01T16:10:16;7.60;99.90
21559;DHT22;10940;48.890;8.240;2023-03-01T16:12:41;7.60;99.90
21559;DHT22;10940;48.890;8.240;2023-03-01T16:15:19;7.50;99.90
21559;DHT22;10940;48.890;8.240;2023-03-01T16:17:45;7.50;99.90
21559;DHT22;10940;48.890;8.240;2023-03-01T16:20:11;7.40;99.90
21559;DHT22;10940;48.890;8.240;2023-03-01T16:22:37;7.40;99.90
21559;DHT22;10940;48.890;8.240;2023-03-01T16:25:03;7.30;99.90
21559;DHT22;10940;48.890;8.240;2023-03-01T16:27:29;7.30;99.90
21559;DHT22;10940;48.890;8.240;2023-03-01T16:29:54;7.20;99.90
21559;DHT22;10940;48.890;8.240;2023-03-01T16:32:20;7.10;99.90
21559;DHT22;10940;48.890;8.240;2023-03-01T16:34:45;7.10;99.90
21559;DHT22;10940;48.890;8.240;2023-03-01T16:37:14;7.00;99.90
21559;DHT22;10940;48.890;8.240;2023-03-01T16:39:40;7.00;99.90
21559;DHT22;10940;48.890;8.240;2023-03-01T16:42:06;6.90;99.90
21559;DHT22;10940;48.890;8.240;2023-03-01T16:44:32;6.90;99.90
21559;DHT22;10940;48.890;8.240;2023-03-01T16:46:58;6.80;99.90
21559;DHT22;10940;48.890;8.240;2023-03-01T16:49:23;6.80;99.90
21559;DHT22;10940;48.890;8.240;2023-03-01T16:51:49;6.70;99.90
21559;DHT22;10940;48.890;8.240;2023-03-01T16:54:14;6.70;99.90
21559;DHT22;10940;48.890;8.240;2023-03-01T16:56:40;6.60;99.90
21559;DHT22;10940;48.890;8.240;2023-03-01T16:59:06;6.60;99.90
21559;DHT22;10940;48.890;8.240;2023-03-01T17:01:32;6.60;99.90
21559;DHT22;10940;48.890;8.240;2023-03-01T17:04:06;6.50;99.90
21559;DHT22;10940;48.890;8.240;2023-03-01T17:06:34;6.40;99.90
21559;DHT22;10940;48.890;8.240;2023-03-01T17:09:00;6.40;99.90
21559;DHT22;10940;48.890;8.240;2023-03-01T17:11:25;6.40;99.90
21559;DHT22;10940;48.890;8.240;2023-03-01T17:13:51;6.30;99.90
21559;DHT22;10940;48.890;8.240;2023-03-01T17:16:18;6.20;99.90
21559;DHT22;10940;48.890;8.240;2023-03-01T17:18:45;6.10;99.90
21559;DHT22;10940;48.890;8.240;2023-03-01T17:21:13;6.10;99.90
21559;DHT22;10940;48.890;8.240;2023-03-01T17:23:41;6.00;99.90
21559;DHT22;10940;48.890;8.240;2023-03-01T17:26:07;6.00;99.90
21559;DHT22;10940;48.890;8.240;2023-03-01T17:28:35;6.00;99.90
21559;DHT22;10940;48.890;8.240;2023-03-01T17:31:02;5.90;99.90
21559;DHT22;10940;48.890;8.240;2023-03-01T17:33:28;5.80;99.90
21559;DHT22;10940;48.890;8.240;2023-03-01T17:35:55;5.70;99.90
21559;DHT22;10940;48.890;8.240;2023-03-01T17:38:21;5.70;99.90
21559;DHT22;10940;48.890;8.240;2023-03-01T17:40:47;5.60;99.90
21559;DHT22;10940;48.890;8.240;2023-03-01T17:43:14;5.50;99.90
21559;DHT22;10940;48.890;8.240;2023-03-01T17:45:40;5.40;99.90
21559;DHT22;10940;48.890;8.240;2023-03-01T17:48:09;5.30;99.90
21559;DHT22;10940;48.890;8.240;2023-03-01T17:50:36;5.20;99.90
21559;DHT22;10940;48.890;8.240;2023-03-01T17:53:03;5.10;99.90
21559;DHT22;10940;48.890;8.240;2023-03-01T17:55:37;5.10;99.90
21559;DHT22;10940;48.890;8.240;2023-03-01T17:58:04;5.00;99.90
21559;DHT22;10940;48.890;8.240;2023-03-01T18:00:30;4.90;99.90
21559;DHT22;10940;48.890;8.240;2023-03-01T18:02:56;4.80;99.90
21559;DHT22;10940;48.890;8.240;2023-03-01T18:05:22;4.80;99.90
21559;DHT22;10940;48.890;8.240;2023-03-01T18:07:49;4.70;99.90
21559;DHT22;10940;48.890;8.240;2023-03-01T18:10:16;4.60;99.90
21559;DHT22;10940;48.890;8.240;2023-03-01T18:12:41;4.60;99.90